Time;durP1;ratioP1;P1;durP2;ratioP2;P2;SDS_P1;SDS_P2;PMS_P1;PMS_P2;Temp;Humidity;BMP_temperature;BMP_pressure;BME280_temperature;BME280_humidity;BME280_pressure;Samples;Min_cycle;Max_cycle;Signal;HPM_P1;HPM_P2
2022/08/28 00:00:27;;;;;;;21.90;7.60;;;;;;;20.21;57.02;99095.50;108669;1283;22482;-68
2022/08/28 00:02:54;;;;;;;17.80;6.70;;;;;;;20.23;57.29;99095.67;108512;1283;137609;-68
2022/08/28 00:05:23;;;;;;;19.90;7.10;;;;;;;20.26;58.26;99099.36;108657;1283;23399;-67
2022/08/28 00:07:52;;;;;;;20.70;6.60;;;;;;;20.25;59.20;99098.45;108556;1283;139140;-66
2022/08/28 00:10:19;;;;;;;24.90;7.70;;;;;;;20.22;59.83;99095.55;108631;1283;23284;-67
2022/08/28 00:12:49;;;;;;;19.80;6.60;;;;;;;20.19;60.89;99090.70;108654;1282;22472;-67
2022/08/28 00:15:19;;;;;;;19.40;7.10;;;;;;;20.15;60.64;99086.10;108954;1277;137867;-67
2022/08/28 00:17:46;;;;;;;26.40;8.70;;;;;;;20.11;59.81;99083.76;108889;1278;23208;-67
2022/08/28 00:20:14;;;;;;;28.40;9.00;;;;;;;20.09;59.03;99075.73;108901;1279;138161;-68
2022/08/28 00:22:41;;;;;;;19.40;7.80;;;;;;;20.06;58.85;99076.00;109061;1277;22468;-68
2022/08/28 00:25:09;;;;;;;21.50;7.40;;;;;;;20.05;59.22;99075.58;109164;1277;23982;-67
2022/08/28 00:27:54;;;;;;;28.90;7.10;;;;;;;20.07;59.21;99072.13;108954;1277;138842;-67
2022/08/28 00:30:28;;;;;;;19.30;6.70;;;;;;;20.12;59.55;99070.91;109052;1277;22441;-68
2022/08/28 00:32:58;;;;;;;20.40;7.60;;;;;;;20.16;60.22;99072.66;109067;1277;137651;-67
2022/08/28 00:35:25;;;;;;;21.20;8.00;;;;;;;20.17;61.55;99069.77;109157;1277;22473;-68
2022/08/28 00:37:53;;;;;;;17.80;7.30;;;;;;;20.13;62.69;99071.88;104597;1277;137718;-67
2022/08/28 00:40:25;;;;;;;19.90;7.40;;;;;;;20.07;63.25;99072.65;104571;1277;22788;-66
2022/08/28 00:42:54;;;;;;;27.80;8.00;;;;;;;20.01;63.04;99069.79;104791;1277;24479;-67
2022/08/28 00:45:23;;;;;;;24.50;8.30;;;;;;;19.97;63.95;99072.40;109094;1277;139053;-68
2022/08/28 00:47:51;;;;;;;24.80;6.70;;;;;;;19.93;64.91;99076.32;109107;1277;23351;-67
2022/08/28 00:50:19;;;;;;;19.90;7.20;;;;;;;19.88;64.97;99072.65;108901;1277;138694;-67
2022/08/28 00:52:47;;;;;;;16.60;6.70;;;;;;;19.84;65.07;99075.15;109111;1277;22405;-68
2022/08/28 00:55:16;;;;;;;23.40;6.50;;;;;;;19.81;65.11;99076.45;108774;1277;22556;-69
2022/08/28 00:57:48;;;;;;;23.00;6.30;;;;;;;19.81;64.57;99074.21;108912;1277;139031;-69
2022/08/28 01:00:28;;;;;;;30.50;7.20;;;;;;;19.82;63.26;99071.95;109181;1277;22659;-68
2022/08/28 01:02:55;;;;;;;20.70;6.40;;;;;;;19.85;62.47;99065.98;108960;1277;137804;-69
2022/08/28 01:05:22;;;;;;;23.50;7.60;;;;;;;19.90;62.13;99069.34;109030;1277;23336;-69
2022/08/28 01:07:52;;;;;;;24.40;8.10;;;;;;;19.96;62.58;99069.18;108893;1277;138372;-68
2022/08/28 01:10:21;;;;;;;20.60;7.00;;;;;;;20.00;62.83;99066.44;108986;1277;22462;-68
2022/08/28 01:12:48;;;;;;;23.00;7.20;;;;;;;20.03;63.33;99063.58;108979;1277;23279;-68
2022/08/28 01:15:17;;;;;;;22.70;6.60;;;;;;;20.04;63.56;99064.64;108983;1277;138418;-68
2022/08/28 01:17:50;;;;;;;19.70;6.50;;;;;;;20.02;64.18;99063.38;109009;1277;23227;-69
2022/08/28 01:20:19;;;;;;;23.70;7.70;;;;;;;20.01;64.07;99064.27;108853;1277;138696;-68
2022/08/28 01:23:08;;;;;;;19.00;7.40;;;;;;;19.98;64.52;99062.35;109129;1277;22421;-68
2022/08/28 01:25:35;;;;;;;18.60;6.70;;;;;;;19.96;64.65;99059.29;108946;1277;22572;-67
2022/08/28 01:28:05;;;;;;;23.40;7.90;;;;;;;19.94;64.23;99057.64;108928;1277;138484;-68
2022/08/28 01:30:32;;;;;;;31.40;8.60;;;;;;;19.94;64.15;99055.42;109044;1277;22542;-68
2022/08/28 01:32:59;;;;;;;23.50;7.60;;;;;;;19.94;64.31;99053.08;108847;1277;139051;-68
2022/08/28 01:35:29;;;;;;;16.70;7.30;;;;;;;19.95;64.20;99050.80;109034;1277;22594;-68
2022/08/28 01:37:55;;;;;;;22.80;6.90;;;;;;;19.96;63.96;99047.71;108898;1277;139596;-67
2022/08/28 01:40:25;;;;;;;26.50;7.80;;;;;;;19.98;63.59;99043.92;109039;1277;23217;-67
2022/08/28 01:42:53;;;;;;;16.90;7.00;;;;;;;20.00;63.69;99037.13;109030;1279;22524;-67
2022/08/28 01:45:21;;;;;;;25.00;7.90;;;;;;;20.01;64.11;99028.73;109088;1277;137535;-68
2022/08/28 01:47:48;;;;;;;20.20;7.40;;;;;;;20.00;63.76;99019.04;109013;1277;23230;-68
2022/08/28 01:50:18;;;;;;;31.90;8.90;;;;;;;19.99;63.48;99005.58;108983;1277;137939;-67
2022/08/28 01:52:45;;;;;;;23.70;7.60;;;;;;;19.99;63.10;98999.06;109033;1277;22554;-67
2022/08/28 01:55:12;;;;;;;21.50;8.20;;;;;;;19.98;63.06;98995.33;109039;1277;22536;-67
2022/08/28 01:57:48;;;;;;;26.30;7.50;;;;;;;19.98;62.95;98994.93;108892;1279;138240;-68
2022/08/28 02:00:15;;;;;;;31.00;7.30;;;;;;;19.98;62.83;98995.04;108953;1277;22621;-68
2022/08/28 02:02:42;;;;;;;22.40;6.20;;;;;;;19.98;62.70;98991.52;108844;1277;138149;-68
2022/08/28 02:05:09;;;;;;;21.20;5.80;;;;;;;19.97;62.70;98987.46;108978;1279;22462;-68
2022/08/28 02:07:36;;;;;;;21.40;6.40;;;;;;;19.96;61.95;98983.95;109019;1278;23374;-68
2022/08/28 02:10:05;;;;;;;20.80;6.20;;;;;;;19.97;61.67;98982.94;109002;1277;137416;-68
2022/08/28 02:12:32;;;;;;;19.90;7.90;;;;;;;19.98;61.46;98980.47;109010;1277;22452;-68
2022/08/28 02:14:59;;;;;;;16.90;6.60;;;;;;;19.99;61.35;98982.80;108903;1279;137400;-68
2022/08/28 02:17:25;;;;;;;19.40;7.50;;;;;;;20.00;61.32;98984.52;108982;1280;22432;-68
2022/08/28 02:19:52;;;;;;;17.10;6.50;;;;;;;20.01;61.41;98988.26;108908;1278;138782;-67
2022/08/28 02:22:19;;;;;;;25.40;7.40;;;;;;;20.01;61.69;98986.75;108993;1278;22451;-67
2022/08/28 02:24:46;;;;;;;17.90;6.40;;;;;;;20.01;61.79;98990.63;109036;1278;22514;-68
2022/08/28 02:27:13;;;;;;;18.60;6.80;;;;;;;20.01;61.80;98992.23;108935;1277;139576;-69
2022/08/28 02:29:39;;;;;;;29.40;7.90;;;;;;;20.00;61.77;98990.12;109088;1277;22457;-68
2022/08/28 02:32:06;;;;;;;17.50;5.90;;;;;;;19.99;61.54;98990.58;109012;1277;138580;-68
2022/08/28 02:34:33;;;;;;;20.00;6.30;;;;;;;20.01;61.62;98988.42;109049;1277;22551;-68
2022/08/28 02:37:00;;;;;;;18.30;6.40;;;;;;;20.02;61.37;98988.48;109045;1277;22559;-69
2022/08/28 02:39:27;;;;;;;21.50;7.30;;;;;;;20.04;60.97;98985.38;108916;1277;138077;-68
2022/08/28 02:41:54;;;;;;;18.90;7.20;;;;;;;20.05;60.94;98981.69;108993;1279;22537;-68
2022/08/28 02:44:20;;;;;;;18.40;6.70;;;;;;;20.08;60.97;98981.96;108909;1277;137333;-68
2022/08/28 02:46:47;;;;;;;21.10;6.90;;;;;;;20.08;60.94;98978.13;109064;1277;22530;-68
2022/08/28 02:49:14;;;;;;;17.40;7.10;;;;;;;20.09;61.08;98982.58;109026;1277;23160;-68
2022/08/28 02:51:41;;;;;;;16.60;6.80;;;;;;;20.10;61.35;98984.13;108975;1277;138491;-68
2022/08/28 02:54:08;;;;;;;24.40;7.00;;;;;;;20.10;61.51;98985.08;109090;1277;22457;-68
2022/08/28 02:56:34;;;;;;;28.00;6.80;;;;;;;20.10;61.39;98989.47;109094;1277;137477;-68
2022/08/28 02:59:01;;;;;;;19.10;6.60;;;;;;;20.09;61.24;98990.16;109008;1279;22549;-67
2022/08/28 03:01:28;;;;;;;24.30;7.00;;;;;;;20.08;60.80;98994.33;109074;1278;22492;-67
2022/08/28 03:03:55;;;;;;;18.50;6.60;;;;;;;20.08;60.55;98997.61;109071;1277;138536;-67
2022/08/28 03:06:22;;;;;;;18.50;6.60;;;;;;;20.08;60.56;99000.54;109195;1276;22532;-68
2022/08/28 03:08:48;;;;;;;24.80;6.50;;;;;;;20.09;61.03;99000.12;109055;1276;139255;-67
2022/08/28 03:11:15;;;;;;;18.00;6.20;;;;;;;20.09;61.25;99004.24;109210;1275;22494;-67
2022/08/28 03:13:42;;;;;;;17.90;6.70;;;;;;;20.08;61.52;99005.06;109248;1276;22593;-68
2022/08/28 03:16:09;;;;;;;17.60;5.80;;;;;;;20.05;61.74;99008.18;109039;1277;138187;-67
2022/08/28 03:18:35;;;;;;;23.20;6.90;;;;;;;20.01;61.63;99015.52;109095;1277;23796;-68
2022/08/28 03:21:02;;;;;;;23.80;7.00;;;;;;;19.97;61.83;99013.15;108988;1276;138268;-68
2022/08/28 03:23:30;;;;;;;15.10;7.20;;;;;;;19.95;62.09;99010.30;109210;1277;23585;-68
2022/08/28 03:26:01;;;;;;;17.90;6.60;;;;;;;19.95;63.12;99017.39;109100;1276;138524;-67
2022/08/28 03:28:31;;;;;;;22.90;6.80;;;;;;;19.94;63.20;99017.27;109146;1277;22632;-68
2022/08/28 03:30:57;;;;;;;15.30;6.00;;;;;;;19.92;63.07;99023.20;109106;1277;22476;-67
2022/08/28 03:33:25;;;;;;;19.50;5.90;;;;;;;19.89;63.45;99026.73;109026;1277;138388;-68
2022/08/28 03:35:52;;;;;;;17.00;6.80;;;;;;;19.87;64.17;99036.83;109080;1277;22549;-68
2022/08/28 03:38:20;;;;;;;18.90;7.50;;;;;;;19.84;64.81;99036.77;109020;1277;140116;-67
2022/08/28 03:40:47;;;;;;;16.30;6.40;;;;;;;19.81;65.61;99037.16;108998;1277;22513;-68
2022/08/28 03:43:17;;;;;;;29.60;6.50;;;;;;;19.76;66.23;99038.90;109104;1277;22429;-68
2022/08/28 03:45:58;;;;;;;28.00;7.30;;;;;;;19.75;66.77;99039.34;108986;1277;138266;-68
2022/08/28 03:48:25;;;;;;;18.00;6.30;;;;;;;19.75;66.48;99048.76;109109;1277;22228;-67
2022/08/28 03:50:52;;;;;;;26.50;6.60;;;;;;;19.74;66.85;99047.64;108985;1277;138866;-67
2022/08/28 03:53:21;;;;;;;17.90;7.60;;;;;;;19.72;66.93;99046.38;109084;1277;23291;-67
2022/08/28 03:55:48;;;;;;;20.10;7.50;;;;;;;19.70;67.13;99044.07;108290;1277;139388;-67
2022/08/28 03:58:15;;;;;;;25.20;8.60;;;;;;;19.68;67.35;99045.59;104690;1277;24308;-67
2022/08/28 04:00:45;;;;;;;22.10;8.20;;;;;;;19.69;67.35;99044.66;109142;1276;22333;-67
2022/08/28 04:03:12;;;;;;;26.80;9.40;;;;;;;19.69;66.84;99040.49;109050;1277;138823;-68
2022/08/28 04:05:39;;;;;;;21.50;8.30;;;;;;;19.71;66.89;99040.75;109117;1277;22490;-67
2022/08/28 04:08:06;;;;;;;19.40;8.60;;;;;;;19.74;67.73;99042.27;109020;1277;140071;-67
2022/08/28 04:10:34;;;;;;;22.60;9.00;;;;;;;19.78;68.47;99040.16;109193;1277;22584;-67
2022/08/28 04:13:02;;;;;;;20.30;8.10;;;;;;;19.81;68.77;99041.61;109151;1277;23207;-67
2022/08/28 04:15:28;;;;;;;28.30;10.10;;;;;;;19.84;68.81;99038.81;109076;1276;140213;-66
2022/08/28 04:17:55;;;;;;;28.20;9.70;;;;;;;19.85;68.02;99038.30;109039;1277;22419;-67
2022/08/28 04:20:22;;;;;;;32.40;11.20;;;;;;;19.85;67.04;99039.89;109066;1277;139622;-68
2022/08/28 04:22:49;;;;;;;30.70;14.00;;;;;;;19.84;66.40;99041.84;109138;1277;23584;-66
2022/08/28 04:25:21;;;;;;;31.90;12.60;;;;;;;19.84;66.05;99036.34;109136;1277;23593;-67
2022/08/28 04:27:55;;;;;;;30.50;12.80;;;;;;;19.85;66.18;99033.42;108963;1277;138848;-67
2022/08/28 04:30:22;;;;;;;34.80;13.00;;;;;;;19.86;66.26;99028.02;109085;1277;23256;-67
2022/08/28 04:32:48;;;;;;;28.00;12.90;;;;;;;19.90;66.68;99029.37;109003;1277;138041;-66
2022/08/28 04:35:15;;;;;;;30.30;11.00;;;;;;;19.92;66.77;99032.65;109135;1277;22416;-68
2022/08/28 04:37:45;;;;;;;22.40;8.80;;;;;;;19.92;65.60;99032.36;109167;1277;22563;-68
2022/08/28 04:40:14;;;;;;;22.10;7.20;;;;;;;19.92;65.00;99036.88;109177;1277;23969;-69
2022/08/28 04:42:43;;;;;;;22.70;7.40;;;;;;;19.95;64.37;99034.14;109144;1276;23521;-68
2022/08/28 04:45:10;;;;;;;20.50;8.70;;;;;;;19.98;63.58;99036.80;109059;1277;139078;-69
2022/08/28 04:47:37;;;;;;;22.80;7.90;;;;;;;20.02;65.05;99035.49;109113;1277;22586;-68
2022/08/28 04:50:05;;;;;;;22.70;7.60;;;;;;;20.07;66.03;99040.73;109004;1277;138152;-68
2022/08/28 04:52:32;;;;;;;20.40;8.20;;;;;;;20.08;64.14;99037.44;109120;1277;22461;-68
2022/08/28 04:54:59;;;;;;;50.20;33.00;;;;;;;20.09;63.54;99037.27;109155;1277;22393;-69
2022/08/28 04:57:25;;;;;;;18.60;9.10;;;;;;;20.12;63.58;99036.45;108951;1277;138505;-67
2022/08/28 04:59:52;;;;;;;14.30;6.20;;;;;;;20.16;63.63;99034.00;109105;1277;22456;-69
2022/08/28 05:02:19;;;;;;;23.20;6.70;;;;;;;20.20;63.78;99028.14;109118;1277;137961;-68
2022/08/28 05:04:46;;;;;;;24.00;7.30;;;;;;;20.24;63.79;99031.05;109123;1277;22462;-68
2022/08/28 05:07:13;;;;;;;17.20;6.60;;;;;;;20.25;64.01;99029.78;109132;1277;22436;-68
2022/08/28 05:09:39;;;;;;;21.80;7.20;;;;;;;20.27;64.16;99036.73;109044;1277;139274;-69
2022/08/28 05:12:06;;;;;;;22.50;6.80;;;;;;;20.29;64.15;99034.52;109103;1277;23065;-69
2022/08/28 05:14:34;;;;;;;16.80;6.90;;;;;;;20.31;64.60;99035.15;108992;1277;138626;-68
2022/08/28 05:17:00;;;;;;;25.00;7.40;;;;;;;20.33;65.09;99032.64;109032;1278;22418;-68
2022/08/28 05:19:27;;;;;;;26.70;7.00;;;;;;;20.35;65.42;99032.45;109205;1277;23480;-68
2022/08/28 05:21:54;;;;;;;22.20;6.90;;;;;;;20.37;65.60;99034.33;109092;1277;140488;-69
2022/08/28 05:24:21;;;;;;;22.60;7.10;;;;;;;20.41;65.46;99038.35;109143;1277;22602;-68
2022/08/28 05:26:48;;;;;;;17.60;6.60;;;;;;;20.44;65.98;99038.17;109027;1277;138721;-68
2022/08/28 05:29:15;;;;;;;25.40;6.40;;;;;;;20.48;65.89;99034.27;109143;1277;22489;-69
2022/08/28 05:31:42;;;;;;;17.50;7.10;;;;;;;20.51;65.69;99035.41;109106;1277;23138;-69
2022/08/28 05:34:11;;;;;;;24.60;6.80;;;;;;;20.54;65.75;99030.21;109093;1277;22459;-69
2022/08/28 05:36:38;;;;;;;19.30;6.80;;;;;;;20.57;65.97;99036.84;109068;1277;23282;-69
2022/08/28 05:39:07;;;;;;;15.30;6.90;;;;;;;20.60;65.85;99035.37;109026;1277;139103;-68
2022/08/28 05:41:34;;;;;;;23.80;7.00;;;;;;;20.61;65.43;99034.88;109178;1277;23374;-68
2022/08/28 05:44:03;;;;;;;20.60;7.50;;;;;;;20.62;65.52;99035.55;109019;1276;138999;-68
2022/08/28 05:46:33;;;;;;;23.00;7.30;;;;;;;20.64;66.26;99039.25;109247;1276;22557;-68
2022/08/28 05:49:00;;;;;;;18.40;6.20;;;;;;;20.66;66.93;99039.73;109264;1276;22451;-69
2022/08/28 05:51:27;;;;;;;18.60;7.20;;;;;;;20.67;66.47;99046.02;109224;1276;138412;-68
2022/08/28 05:53:54;;;;;;;17.90;6.70;;;;;;;20.66;66.38;99048.98;109350;1276;23537;-68
2022/08/28 05:56:25;;;;;;;27.50;7.60;;;;;;;20.66;66.19;99048.11;109067;1277;139797;-68
2022/08/28 05:58:52;;;;;;;21.50;6.10;;;;;;;20.66;65.91;99050.09;109243;1277;22550;-69
2022/08/28 06:01:20;;;;;;;16.20;6.80;;;;;;;20.66;65.78;99050.71;109213;1277;23302;-68
2022/08/28 06:03:53;;;;;;;22.40;7.40;;;;;;;20.65;65.59;99049.58;109107;1277;139678;-69
2022/08/28 06:06:21;;;;;;;27.30;7.80;;;;;;;20.65;65.93;99047.69;107571;1276;22592;-68
2022/08/28 06:08:47;;;;;;;25.40;7.50;;;;;;;20.67;66.03;99051.63;104928;1277;138270;-68
2022/08/28 06:11:24;;;;;;;25.40;7.40;;;;;;;20.68;66.50;99052.36;104894;1277;22592;-68
2022/08/28 06:13:52;;;;;;;178.80;142.80;;;;;;;20.69;66.62;99053.86;104893;1277;139653;-64
2022/08/28 06:16:19;;;;;;;83.90;60.60;;;;;;;20.71;66.86;99053.92;105058;1277;22736;-64
2022/08/28 06:18:46;;;;;;;26.00;12.40;;;;;;;20.74;67.14;99058.63;104989;1276;22627;-66
2022/08/28 06:21:13;;;;;;;25.20;8.40;;;;;;;20.76;66.58;99059.52;104846;1277;138322;-69
2022/08/28 06:23:40;;;;;;;19.70;7.10;;;;;;;20.78;65.52;99063.08;104914;1277;23442;-69
2022/08/28 06:26:06;;;;;;;19.90;6.90;;;;;;;20.81;65.18;99063.70;104517;1277;138600;-68
2022/08/28 06:28:33;;;;;;;21.20;7.60;;;;;;;20.84;65.27;99066.75;104759;1277;25046;-69
2022/08/28 06:31:02;;;;;;;23.20;8.50;;;;;;;20.87;65.67;99063.09;104807;1277;22718;-68
2022/08/28 06:33:48;;;;;;;26.30;8.80;;;;;;;20.92;65.94;99065.27;109140;1275;138920;-69
2022/08/28 06:36:15;;;;;;;33.10;8.00;;;;;;;20.97;65.83;99064.08;109097;1277;22629;-69
2022/08/28 06:38:45;;;;;;;23.50;8.90;;;;;;;21.01;65.21;99065.39;109183;1276;140358;-69
2022/08/28 06:41:13;;;;;;;23.30;8.50;;;;;;;21.07;63.87;99065.52;109117;1277;22447;-70
2022/08/28 06:43:40;;;;;;;18.90;8.00;;;;;;;21.14;63.83;99069.09;109257;1276;23509;-69
2022/08/28 06:46:07;;;;;;;21.20;7.60;;;;;;;21.21;63.17;99074.08;109119;1277;137989;-69
2022/08/28 06:48:34;;;;;;;17.60;6.80;;;;;;;21.28;61.51;99075.98;109169;1276;23158;-69
2022/08/28 06:51:04;;;;;;;64.90;33.30;;;;;;;21.35;61.65;99076.89;109253;1274;138824;-67
2022/08/28 06:53:32;;;;;;;35.70;15.30;;;;;;;21.42;61.61;99079.11;109309;1277;22459;-69
2022/08/28 06:56:07;;;;;;;19.40;7.60;;;;;;;21.47;61.45;99077.09;109200;1276;138340;-69
2022/08/28 06:58:35;;;;;;;28.40;8.50;;;;;;;21.51;61.53;99077.86;109412;1274;22469;-69
2022/08/28 07:01:10;;;;;;;22.50;7.30;;;;;;;21.56;60.72;99073.89;109436;1274;22441;-68
2022/08/28 07:03:40;;;;;;;20.10;7.60;;;;;;;21.59;60.66;99073.40;109290;1274;138175;-68
2022/08/28 07:06:11;;;;;;;24.00;7.30;;;;;;;21.63;60.83;99071.64;108061;1274;23807;-60
2022/08/28 07:08:39;;;;;;;18.60;6.90;;;;;;;21.67;61.29;99071.05;104744;1274;137649;-60
2022/08/28 07:11:18;;;;;;;22.30;6.80;;;;;;;21.71;61.14;99074.91;104963;1274;26640;-60
2022/08/28 07:13:45;;;;;;;23.80;8.00;;;;;;;21.70;60.56;99071.65;109286;1274;137629;-61
2022/08/28 07:16:13;;;;;;;24.30;7.30;;;;;;;21.71;61.01;99074.15;109416;1274;23656;-60
2022/08/28 07:18:40;;;;;;;23.60;7.20;;;;;;;21.72;60.82;99066.33;109456;1273;22440;-61
2022/08/28 07:21:07;;;;;;;16.80;7.10;;;;;;;21.73;60.95;99064.39;109327;1274;137755;-60
2022/08/28 07:23:38;;;;;;;19.30;7.20;;;;;;;21.74;61.26;99061.49;109506;1274;22470;-60
2022/08/28 07:26:07;;;;;;;22.90;7.10;;;;;;;21.76;61.37;99059.34;109366;1273;138582;-60
2022/08/28 07:28:34;;;;;;;27.30;7.70;;;;;;;21.77;61.61;99058.51;109482;1274;22473;-61
2022/08/28 07:31:03;;;;;;;22.80;7.30;;;;;;;21.78;60.74;99054.73;109442;1273;22508;-60
2022/08/28 07:33:30;;;;;;;19.40;7.50;;;;;;;21.79;60.52;99053.34;109390;1274;137855;-60
2022/08/28 07:35:57;;;;;;;21.00;7.30;;;;;;;21.81;60.41;99054.98;109344;1274;22896;-60
2022/08/28 07:38:25;;;;;;;24.30;7.50;;;;;;;21.83;60.24;99053.65;109278;1273;138059;-61
2022/08/28 07:40:52;;;;;;;23.00;6.50;;;;;;;21.86;59.62;99054.31;109406;1274;22446;-61
2022/08/28 07:46:06;;;;;;;30.70;7.30;;;;;;;21.96;60.51;99053.51;109249;1274;137329;-60
2022/08/28 07:48:36;;;;;;;34.60;9.20;;;;;;;22.01;60.54;99055.96;109433;1274;23131;-61
2022/08/28 07:51:04;;;;;;;21.30;7.50;;;;;;;22.08;59.14;99059.73;109315;1274;137779;-61
2022/08/28 07:53:31;;;;;;;25.10;7.60;;;;;;;22.14;58.85;99060.10;109307;1274;22544;-61
2022/08/28 07:56:03;;;;;;;26.70;9.00;;;;;;;22.20;58.59;99060.64;109356;1274;138252;-61
2022/08/28 07:58:30;;;;;;;22.50;7.60;;;;;;;22.28;58.98;99060.87;109389;1274;22477;-61
2022/08/28 08:00:56;;;;;;;19.60;7.20;;;;;;;22.35;58.57;99058.23;109456;1274;22506;-61
2022/08/28 08:03:24;;;;;;;27.30;9.20;;;;;;;22.42;58.17;99055.45;109326;1274;139516;-61
2022/08/28 08:05:56;;;;;;;24.30;9.20;;;;;;;22.49;58.07;99057.36;109423;1274;23547;-61
2022/08/28 08:08:23;;;;;;;26.10;9.10;;;;;;;22.56;57.94;99059.58;109356;1274;137894;-61
2022/08/28 08:11:03;;;;;;;34.30;8.30;;;;;;;22.64;57.70;99057.67;109510;1273;22453;-61
2022/08/28 08:13:31;;;;;;;24.60;7.80;;;;;;;22.73;57.74;99051.85;109461;1274;22571;-61
2022/08/28 08:16:09;;;;;;;30.10;8.10;;;;;;;22.83;58.21;99053.84;108337;1274;138709;-60
2022/08/28 08:18:38;;;;;;;30.70;8.10;;;;;;;22.93;58.17;99052.41;109444;1274;22442;-61
2022/08/28 08:21:05;;;;;;;26.80;7.50;;;;;;;23.02;58.21;99050.21;109315;1274;137928;-61
2022/08/28 08:23:37;;;;;;;33.40;8.50;;;;;;;23.12;58.20;99046.54;109449;1273;22457;-61
2022/08/28 08:26:06;;;;;;;31.70;7.80;;;;;;;23.23;57.10;99047.04;109292;1274;139629;-61
2022/08/28 08:28:33;;;;;;;32.70;7.30;;;;;;;23.35;56.23;99042.58;109419;1274;22510;-60
2022/08/28 08:31:04;;;;;;;31.80;7.80;;;;;;;23.45;56.02;99040.31;109422;1274;22501;-60
2022/08/28 08:33:31;;;;;;;26.80;7.80;;;;;;;23.56;56.49;99041.05;109357;1274;138701;-60
2022/08/28 08:35:58;;;;;;;31.80;8.90;;;;;;;23.68;56.44;99040.51;109330;1274;22487;-60
2022/08/28 08:38:26;;;;;;;27.80;9.10;;;;;;;23.78;56.49;99044.03;109356;1274;137830;-61
2022/08/28 08:40:54;;;;;;;17.70;7.60;;;;;;;23.85;56.75;99043.02;109483;1273;22467;-61
2022/08/28 08:43:22;;;;;;;29.90;8.70;;;;;;;23.91;56.57;99037.24;109411;1274;23707;-60
2022/08/28 08:45:51;;;;;;;31.20;8.60;;;;;;;23.97;55.56;99031.09;108549;1274;139296;-60
2022/08/28 08:48:24;;;;;;;22.40;6.70;;;;;;;24.02;55.09;99029.63;105090;1274;22585;-60
2022/08/28 08:50:51;;;;;;;17.30;7.00;;;;;;;24.07;54.86;99028.16;109312;1273;139598;-60
2022/08/28 08:53:20;;;;;;;26.70;8.60;;;;;;;24.11;54.96;99027.30;109424;1274;22532;-60
2022/08/28 08:55:49;;;;;;;22.50;8.50;;;;;;;24.15;54.88;99029.38;109383;1274;137951;-61
2022/08/28 08:58:38;;;;;;;26.00;8.60;;;;;;;24.19;54.95;99022.98;109297;1274;22444;-60
2022/08/28 09:01:19;;;;;;;23.70;8.20;;;;;;;24.27;55.10;99026.29;109360;1274;22394;-60
2022/08/28 09:03:55;;;;;;;19.40;7.90;;;;;;;24.35;54.29;99032.14;109246;1274;137579;-60
2022/08/28 09:06:44;;;;;;;31.90;9.60;;;;;;;24.41;52.83;99035.53;109397;1274;22503;-60
2022/08/28 09:09:16;;;;;;;23.30;7.80;;;;;;;24.47;52.24;99034.97;109247;1274;138138;-60
2022/08/28 09:11:43;;;;;;;23.40;8.20;;;;;;;24.51;52.07;99037.07;109492;1273;22484;-60
2022/08/28 09:14:27;;;;;;;31.50;7.20;;;;;;;24.56;51.95;99037.71;109376;1274;137827;-61
2022/08/28 09:16:55;;;;;;;22.60;8.00;;;;;;;24.60;51.55;99045.30;109444;1274;23235;-60
2022/08/28 09:19:22;;;;;;;30.80;8.00;;;;;;;24.61;50.81;99049.63;109484;1274;23573;-60
2022/08/28 09:21:49;;;;;;;28.40;8.00;;;;;;;24.60;50.59;99047.84;109313;1273;137575;-60
2022/08/28 09:24:32;;;;;;;18.70;7.60;;;;;;;24.59;50.69;99041.23;109475;1274;22430;-59
2022/08/28 09:27:04;;;;;;;18.60;6.70;;;;;;;24.61;50.99;99042.08;109327;1274;137737;-60
2022/08/28 09:29:37;;;;;;;32.20;8.30;;;;;;;24.66;48.76;99040.84;109417;1274;22600;-60
2022/08/28 09:32:16;;;;;;;23.20;6.80;;;;;;;24.74;48.56;99041.00;109229;1274;139112;-60
2022/08/28 09:34:58;;;;;;;23.20;6.80;;;;;;;24.80;46.43;99040.35;109507;1272;23678;-60
2022/08/28 09:37:25;;;;;;;25.10;5.60;;;;;;;24.85;45.70;99042.29;109427;1273;23166;-59
2022/08/28 09:40:12;;;;;;;17.30;6.00;;;;;;;24.89;45.58;99040.70;109205;1274;137611;-60
2022/08/28 09:45:25;;;;;;;17.90;5.80;;;;;;;24.94;43.15;99037.73;109425;1274;138012;-60
2022/08/28 09:47:56;;;;;;;20.80;5.50;;;;;;;24.95;42.84;99041.35;109376;1274;23422;-59
2022/08/28 09:50:30;;;;;;;16.10;5.40;;;;;;;24.95;43.33;99041.42;109162;1274;137756;-60
2022/08/28 09:53:18;;;;;;;12.60;4.10;;;;;;;24.96;42.23;99042.48;109407;1272;22961;-59
2022/08/28 09:55:54;;;;;;;14.40;5.00;;;;;;;25.00;40.81;99050.27;109226;1273;139596;-60
2022/08/28 09:58:22;;;;;;;9.50;4.50;;;;;;;25.00;40.66;99045.27;109425;1274;22532;-60
2022/08/28 10:00:55;;;;;;;15.90;4.60;;;;;;;25.03;40.68;99049.70;109329;1274;22457;-60
2022/08/28 10:03:30;;;;;;;13.60;4.80;;;;;;;25.05;40.58;99049.36;109093;1274;138804;-59
2022/08/28 10:06:08;;;;;;;18.20;6.10;;;;;;;25.08;41.07;99050.39;109339;1274;22329;-60
2022/08/28 10:08:49;;;;;;;11.60;4.90;;;;;;;25.09;40.52;99052.55;109229;1272;138082;-59
2022/08/28 10:11:28;;;;;;;13.60;5.10;;;;;;;25.06;40.80;99053.70;109444;1274;22437;-59
2022/08/28 10:14:31;;;;;;;13.70;4.90;;;;;;;25.05;40.82;99052.70;109307;1274;137588;-60
2022/08/28 10:16:58;;;;;;;13.80;4.60;;;;;;;25.04;40.46;99049.81;109507;1273;22439;-60
2022/08/28 10:20:19;;;;;;;10.90;4.50;;;;;;;25.03;39.97;99049.39;109458;1271;23162;-59
2022/08/28 10:22:58;;;;;;;14.70;5.20;;;;;;;25.05;40.28;99047.52;108959;1277;22617;-59
2022/08/28 10:25:31;;;;;;;8.80;4.00;;;;;;;25.08;40.46;99046.64;108886;1277;22524;-60
2022/08/28 10:28:35;;;;;;;10.30;5.00;;;;;;;25.12;40.17;99043.60;108883;1277;137412;-60
2022/08/28 10:31:35;;;;;;;13.30;4.90;;;;;;;25.17;40.13;99040.30;108963;1278;22782;-59
2022/08/28 10:34:12;;;;;;;13.50;5.00;;;;;;;25.22;41.00;99044.05;108812;1277;138173;-60
2022/08/28 10:36:39;;;;;;;18.60;6.20;;;;;;;25.29;41.11;99041.98;109004;1277;22612;-59
2022/08/28 10:39:31;;;;;;;16.90;5.30;;;;;;;25.39;41.31;99038.02;108867;1280;138535;-60
2022/08/28 10:42:00;;;;;;;10.10;4.50;;;;;;;25.50;40.75;99034.67;108902;1281;23223;-59
2022/08/28 10:44:56;;;;;;;12.20;5.20;;;;;;;25.57;40.49;99034.38;108909;1277;137778;-60
2022/08/28 10:47:25;;;;;;;15.00;6.00;;;;;;;25.61;40.51;99033.77;108997;1277;23121;-60
2022/08/28 10:49:52;;;;;;;9.80;4.80;;;;;;;25.63;40.45;99033.99;108906;1277;138134;-60
2022/08/28 10:52:26;;;;;;;13.70;5.30;;;;;;;25.66;40.75;99033.57;108851;1277;23266;-60
2022/08/28 10:55:20;;;;;;;11.60;4.90;;;;;;;25.71;40.92;99031.56;108852;1278;23546;-59
2022/08/28 10:57:55;;;;;;;15.20;5.40;;;;;;;25.75;40.70;99037.86;109294;1274;138543;-60
2022/08/28 11:00:22;;;;;;;12.10;5.90;;;;;;;25.75;40.40;99034.68;109424;1274;23508;-60
2022/08/28 11:06:07;;;;;;;15.70;5.10;;;;;;;25.78;41.14;99038.16;101851;1309;545544;-60
2022/08/28 11:08:34;;;;;;;14.40;5.80;;;;;;;25.80;41.14;99032.16;108298;1284;137016;-61
2022/08/28 11:11:03;;;;;;;11.50;5.40;;;;;;;25.86;41.13;99038.70;108007;1286;23205;-61
2022/08/28 11:13:54;;;;;;;14.40;5.70;;;;;;;25.90;40.78;99036.86;107948;1288;22549;-68
2022/08/28 11:16:30;;;;;;;11.00;5.10;;;;;;;25.93;40.58;99038.13;108159;1287;23777;-67
2022/08/28 11:19:21;;;;;;;14.40;6.30;;;;;;;25.94;40.57;99036.71;106615;1284;1948660;-68
2022/08/28 11:21:53;;;;;;;10.70;5.40;;;;;;;25.95;39.84;99036.48;108309;1284;137518;-68
2022/08/28 11:24:41;;;;;;;13.90;6.20;;;;;;;25.94;39.98;99035.50;108194;1286;22565;-68
2022/08/28 11:27:26;;;;;;;16.60;5.80;;;;;;;25.95;39.84;99036.33;108306;1284;138088;-68
2022/08/28 11:30:13;;;;;;;16.10;5.40;;;;;;;25.98;39.52;99045.05;108429;1284;22572;-69
2022/08/28 11:32:49;;;;;;;13.00;6.20;;;;;;;25.98;39.50;99044.09;108294;1284;138219;-68
2022/08/28 11:35:19;;;;;;;18.00;7.20;;;;;;;25.99;39.05;99048.44;108080;1288;23559;-68
2022/08/28 11:37:47;;;;;;;18.50;9.20;;;;;;;26.00;38.98;99050.20;108090;1286;137270;-67